Time;durP1;ratioP1;P1;durP2;ratioP2;P2;SDS_P1;SDS_P2;PMS_P1;PMS_P2;Temp;Humidity;BMP_temperature;BMP_pressure;BME280_temperature;BME280_humidity;BME280_pressure;Samples;Min_cycle;Max_cycle;Signal;HPM_P1;HPM_P2
2024/04/22 00:01:54;;;;;;;16.90;2.83;;;5.90;99.90;;;;;;5338043;26;20078;-61
2024/04/22 00:04:21;;;;;;;9.73;2.30;;;5.90;99.90;;;;;;5337914;26;20017;-62
2024/04/22 00:06:48;;;;;;;11.30;2.75;;;5.90;99.90;;;;;;5337633;26;19999;-64
2024/04/22 00:09:15;;;;;;;12.02;2.70;;;5.90;99.90;;;;;;5337788;26;20042;-64
2024/04/22 00:11:42;;;;;;;13.15;2.70;;;5.90;99.90;;;;;;5336114;26;20001;-64
2024/04/22 00:14:11;;;;;;;17.02;3.00;;;5.90;99.90;;;;;;5337809;26;20331;-64
2024/04/22 00:16:38;;;;;;;18.60;3.17;;;5.80;99.90;;;;;;5337924;26;20029;-64
2024/04/22 00:19:05;;;;;;;16.52;2.67;;;5.80;99.90;;;;;;5337423;26;20005;-63
2024/04/22 00:21:32;;;;;;;15.23;3.13;;;5.80;99.90;;;;;;5337790;26;20461;-62
2024/04/22 00:24:00;;;;;;;9.10;2.20;;;5.80;99.90;;;;;;5335903;26;20005;-63
2024/04/22 00:26:27;;;;;;;11.45;2.50;;;5.80;99.90;;;;;;5337274;26;20025;-63
2024/04/22 00:28:54;;;;;;;14.45;2.58;;;5.80;99.90;;;;;;5337869;26;20005;-63
2024/04/22 00:31:21;;;;;;;14.82;2.45;;;5.90;99.90;;;;;;5337391;26;20037;-63
2024/04/22 00:33:48;;;;;;;12.68;2.47;;;5.90;99.90;;;;;;5337202;26;20061;-62
2024/04/22 00:36:15;;;;;;;11.15;2.40;;;6.00;99.90;;;;;;5337855;26;20015;-63
2024/04/22 00:38:42;;;;;;;13.82;2.47;;;6.00;99.90;;;;;;5337168;26;20013;-63
2024/04/22 00:41:09;;;;;;;12.60;2.28;;;6.00;99.90;;;;;;5335468;26;20012;-62
2024/04/22 00:43:35;;;;;;;15.38;2.58;;;6.00;99.90;;;;;;5337148;26;20020;-62
2024/04/22 00:46:02;;;;;;;13.48;2.40;;;6.00;99.90;;;;;;5337369;26;20001;-62
2024/04/22 00:48:29;;;;;;;13.63;2.40;;;6.00;99.90;;;;;;5337088;26;20009;-62
2024/04/22 00:50:56;;;;;;;16.98;2.80;;;6.00;99.90;;;;;;5337044;26;20346;-63
2024/04/22 00:53:23;;;;;;;16.42;3.08;;;6.00;99.90;;;;;;5364235;26;20013;-62
2024/04/22 00:55:50;;;;;;;15.13;2.80;;;6.00;99.90;;;;;;5337098;26;20042;-63
2024/04/22 00:58:17;;;;;;;11.60;2.00;;;6.00;99.90;;;;;;5335698;26;20017;-63
2024/04/22 01:00:44;;;;;;;10.68;2.22;;;6.00;99.90;;;;;;5336942;26;20016;-62
2024/04/22 01:03:10;;;;;;;13.27;2.53;;;6.00;99.90;;;;;;5364148;26;20009;-63
2024/04/22 01:05:37;;;;;;;14.05;2.38;;;6.00;99.90;;;;;;5336941;26;19997;-63
2024/04/22 01:08:04;;;;;;;12.65;2.60;;;6.00;99.90;;;;;;5336703;26;20025;-64
2024/04/22 01:10:31;;;;;;;12.00;2.63;;;6.10;99.90;;;;;;5339721;26;20005;-64
2024/04/22 01:12:58;;;;;;;15.70;2.83;;;6.10;99.90;;;;;;5340119;26;20028;-63
2024/04/22 01:15:25;;;;;;;16.98;3.33;;;6.00;99.90;;;;;;5340033;26;20012;-64
2024/04/22 01:17:52;;;;;;;10.20;2.25;;;6.00;99.90;;;;;;5338519;26;20342;-64
2024/04/22 01:20:19;;;;;;;15.50;2.20;;;6.00;99.90;;;;;;5340100;26;20001;-64
2024/04/22 01:22:46;;;;;;;15.65;2.33;;;6.00;99.90;;;;;;5340113;26;20086;-63
2024/04/22 01:25:13;;;;;;;14.63;2.60;;;6.00;99.90;;;;;;5339869;26;20326;-63
2024/04/22 01:27:40;;;;;;;13.05;2.42;;;6.00;99.90;;;;;;5339929;26;20009;-64
2024/04/22 01:30:06;;;;;;;16.85;2.53;;;6.00;99.90;;;;;;5339879;26;20020;-64
2024/04/22 01:32:34;;;;;;;9.75;2.22;;;6.00;99.90;;;;;;5339876;26;20008;-64
2024/04/22 01:35:01;;;;;;;15.77;2.50;;;6.00;99.90;;;;;;5338273;26;19997;-63
2024/04/22 01:37:28;;;;;;;12.90;2.45;;;6.10;99.90;;;;;;5339942;26;20005;-63
2024/04/22 01:39:55;;;;;;;13.48;2.97;;;6.10;99.90;;;;;;5340054;26;20074;-63
2024/04/22 01:42:22;;;;;;;13.50;2.42;;;6.00;99.90;;;;;;5339995;26;20082;-64
2024/04/22 01:44:49;;;;;;;19.92;3.65;;;5.90;99.90;;;;;;5339916;26;20382;-63
2024/04/22 01:47:16;;;;;;;14.02;2.28;;;5.90;99.90;;;;;;5339706;26;20055;-63
2024/04/22 01:49:43;;;;;;;16.02;2.80;;;5.80;99.90;;;;;;5339654;26;20007;-63
2024/04/22 01:52:10;;;;;;;18.30;2.60;;;5.80;99.90;;;;;;5339783;26;20077;-63
2024/04/22 01:54:37;;;;;;;10.20;2.25;;;5.80;99.90;;;;;;5339552;26;20002;-63
2024/04/22 01:57:04;;;;;;;13.68;2.70;;;5.80;99.90;;;;;;5339663;26;20082;-63
2024/04/22 01:59:31;;;;;;;15.20;2.50;;;5.70;99.90;;;;;;5339400;26;20009;-63
2024/04/22 02:01:58;;;;;;;14.60;2.90;;;5.60;99.90;;;;;;5339575;26;20049;-64
2024/04/22 02:04:24;;;;;;;13.35;2.53;;;5.60;99.90;;;;;;5339503;26;20052;-63
2024/04/22 02:06:51;;;;;;;13.32;2.08;;;5.60;99.90;;;;;;5339537;26;20041;-63
2024/04/22 02:09:18;;;;;;;12.05;2.08;;;5.60;99.90;;;;;;5339467;26;20016;-64
2024/04/22 02:11:45;;;;;;;10.80;2.60;;;5.60;99.90;;;;;;5339323;26;20017;-63
2024/04/22 02:14:12;;;;;;;14.60;2.40;;;5.50;99.90;;;;;;5339342;26;20005;-64
2024/04/22 02:16:39;;;;;;;14.73;3.40;;;5.50;99.90;;;;;;5339443;26;20017;-64
2024/04/22 02:19:06;;;;;;;11.43;2.67;;;5.50;99.90;;;;;;5339055;26;20005;-64
2024/04/22 02:21:33;;;;;;;19.33;3.85;;;5.50;99.90;;;;;;5338635;26;20016;-63
2024/04/22 02:24:00;;;;;;;11.30;3.10;;;5.50;99.90;;;;;;5339672;26;20001;-64
2024/04/22 02:26:27;;;;;;;11.18;2.67;;;5.50;99.90;;;;;;5339051;26;20016;-64
2024/04/22 02:28:53;;;;;;;15.40;2.90;;;5.50;99.90;;;;;;5339334;26;20001;-64
2024/04/22 02:31:20;;;;;;;18.95;3.05;;;5.50;99.90;;;;;;5339097;26;20462;-63
2024/04/22 02:33:47;;;;;;;15.98;2.85;;;5.50;99.90;;;;;;5338998;26;20409;-64
2024/04/22 02:36:14;;;;;;;15.80;3.08;;;5.50;99.90;;;;;;5339109;26;20029;-64
2024/04/22 02:38:41;;;;;;;12.00;2.25;;;5.50;99.90;;;;;;5337279;26;20404;-63
2024/04/22 02:41:08;;;;;;;16.63;2.50;;;5.50;99.90;;;;;;5338997;26;20013;-63
2024/04/22 02:43:35;;;;;;;12.40;2.38;;;5.40;99.90;;;;;;5337273;26;20001;-63
2024/04/22 02:46:02;;;;;;;8.27;2.10;;;5.40;99.90;;;;;;5338896;26;20013;-63
2024/04/22 02:48:29;;;;;;;13.77;2.38;;;5.30;99.90;;;;;;5337352;26;20460;-64
2024/04/22 02:50:55;;;;;;;8.70;2.20;;;5.30;99.90;;;;;;5339055;26;20443;-63
2024/04/22 02:53:22;;;;;;;10.13;2.33;;;5.20;99.90;;;;;;5338862;26;20005;-63
2024/04/22 02:55:49;;;;;;;15.77;2.50;;;5.20;99.90;;;;;;5338878;26;20005;-63
2024/04/22 02:58:16;;;;;;;13.38;2.60;;;5.10;99.90;;;;;;5338740;26;20028;-63
2024/04/22 03:00:43;;;;;;;10.07;2.25;;;5.00;99.90;;;;;;5338704;26;20397;-63
2024/04/22 03:03:10;;;;;;;11.00;2.50;;;5.00;99.90;;;;;;5338761;26;20005;-63
2024/04/22 03:05:37;;;;;;;17.17;2.80;;;5.00;99.90;;;;;;5366058;26;20009;-63
2024/04/22 03:08:05;;;;;;;10.85;2.30;;;5.00;99.90;;;;;;5338396;26;20509;-64
2024/04/22 03:10:32;;;;;;;11.23;2.38;;;4.90;99.90;;;;;;5338566;26;20017;-63
2024/04/22 03:13:03;;;;;;;13.60;2.15;;;4.90;99.90;;;;;;5338598;26;20049;-63
2024/04/22 03:15:30;;;;;;;8.88;2.33;;;4.80;99.90;;;;;;5339264;26;20001;-63
2024/04/22 03:17:57;;;;;;;14.02;2.42;;;4.80;99.90;;;;;;5338520;26;20020;-63
2024/04/22 03:20:24;;;;;;;15.45;3.20;;;4.70;99.90;;;;;;5338483;26;20009;-63
2024/04/22 03:22:51;;;;;;;13.05;2.50;;;4.80;99.90;;;;;;5338635;26;20081;-63
2024/04/22 03:25:18;;;;;;;9.43;2.20;;;4.70;99.90;;;;;;5338264;26;20041;-62
2024/04/22 03:27:44;;;;;;;11.68;2.60;;;4.70;99.90;;;;;;5336762;26;20033;-63
2024/04/22 03:30:11;;;;;;;15.50;2.70;;;4.60;99.90;;;;;;5338401;26;20016;-63
2024/04/22 03:32:38;;;;;;;10.68;2.20;;;4.60;99.90;;;;;;5336828;26;20013;-63
2024/04/22 03:35:05;;;;;;;13.30;2.65;;;4.60;99.90;;;;;;5338388;26;20016;-63
2024/04/22 03:37:32;;;;;;;11.40;2.65;;;4.50;99.90;;;;;;5338453;26;20066;-63
2024/04/22 03:39:59;;;;;;;8.07;2.40;;;4.50;99.90;;;;;;5338319;26;20016;-63
2024/04/22 03:42:26;;;;;;;11.18;2.50;;;4.40;99.90;;;;;;5338228;26;19997;-63
2024/04/22 03:44:53;;;;;;;8.35;2.33;;;4.40;99.90;;;;;;5336350;26;20029;-63
2024/04/22 03:50:06;;;;;;;10.55;2.63;;;4.40;99.90;;;;;;5338418;26;20342;-63
2024/04/22 03:52:32;;;;;;;11.70;2.85;;;4.30;99.90;;;;;;5338024;26;20006;-63
2024/04/22 03:54:59;;;;;;;8.27;2.63;;;4.30;99.90;;;;;;5338162;26;20012;-62
2024/04/22 03:57:26;;;;;;;11.35;3.15;;;4.20;99.90;;;;;;5337997;26;20009;-65
2024/04/22 03:59:53;;;;;;;10.57;2.72;;;4.20;99.90;;;;;;5338075;26;20008;-65
2024/04/22 04:02:20;;;;;;;11.55;2.47;;;4.10;99.90;;;;;;5337858;26;20005;-65
2024/04/22 04:04:47;;;;;;;10.50;2.70;;;4.10;99.90;;;;;;5337928;26;20076;-66
2024/04/22 04:07:14;;;;;;;12.80;2.83;;;4.10;99.90;;;;;;5337683;26;20463;-63
2024/04/22 04:09:42;;;;;;;10.10;2.60;;;4.10;99.90;;;;;;5337644;26;20025;-60
2024/04/22 04:12:09;;;;;;;9.93;2.83;;;4.10;99.90;;;;;;5337927;26;20074;-60
2024/04/22 04:14:36;;;;;;;9.27;2.88;;;4.00;99.90;;;;;;5336041;26;20005;-62
2024/04/22 04:17:03;;;;;;;11.05;2.92;;;4.00;99.90;;;;;;5337883;26;20033;-63
2024/04/22 04:19:30;;;;;;;11.82;3.10;;;4.00;99.90;;;;;;5337512;26;20001;-62
2024/04/22 04:21:57;;;;;;;8.18;2.22;;;3.90;99.90;;;;;;5337676;26;20012;-62
2024/04/22 04:24:24;;;;;;;17.33;3.53;;;3.90;99.90;;;;;;5337633;26;20005;-62
2024/04/22 04:26:50;;;;;;;10.13;2.65;;;3.90;99.90;;;;;;5337413;26;20013;-63
2024/04/22 04:29:17;;;;;;;11.45;2.72;;;3.80;99.90;;;;;;5337057;26;20474;-63
2024/04/22 04:31:44;;;;;;;12.10;3.22;;;3.80;99.90;;;;;;5337341;26;20063;-63
2024/04/22 04:34:11;;;;;;;8.57;2.63;;;3.80;99.90;;;;;;5337326;26;20005;-62
2024/04/22 04:36:38;;;;;;;9.27;2.92;;;3.70;99.90;;;;;;5335732;26;20076;-63
2024/04/22 04:39:05;;;;;;;11.45;2.78;;;3.70;99.90;;;;;;5337172;26;20016;-63
2024/04/22 04:41:32;;;;;;;10.35;3.53;;;3.60;99.90;;;;;;5337448;26;20005;-62
2024/04/22 04:43:59;;;;;;;11.57;3.42;;;3.60;99.90;;;;;;5337717;26;20450;-63
2024/04/22 04:46:26;;;;;;;9.00;3.47;;;3.60;99.90;;;;;;5340517;26;20001;-63
2024/04/22 04:48:53;;;;;;;12.60;3.45;;;3.50;99.90;;;;;;5340295;26;20001;-63
2024/04/22 04:51:19;;;;;;;18.88;4.80;;;3.60;99.90;;;;;;5340621;26;20005;-62
2024/04/22 04:53:47;;;;;;;10.68;4.03;;;3.60;99.90;;;;;;5340441;26;20461;-63
2024/04/22 04:56:15;;;;;;;13.50;3.58;;;3.50;99.90;;;;;;5338605;26;20005;-61
2024/04/22 04:58:42;;;;;;;10.45;3.05;;;3.50;99.90;;;;;;5340287;26;20007;-60
2024/04/22 05:01:09;;;;;;;13.75;3.40;;;3.50;99.90;;;;;;5340138;26;20053;-60
2024/04/22 05:03:36;;;;;;;10.00;3.65;;;3.60;99.90;;;;;;5340579;26;20033;-61
2024/04/22 05:06:03;;;;;;;8.93;3.00;;;3.60;99.90;;;;;;5340209;26;20033;-61
2024/04/22 05:08:30;;;;;;;14.60;3.60;;;3.60;99.90;;;;;;5338367;26;20001;-60
2024/04/22 05:10:57;;;;;;;11.15;3.22;;;3.60;99.90;;;;;;5340490;26;20045;-60
2024/04/22 05:13:25;;;;;;;11.77;2.88;;;3.60;99.90;;;;;;5340072;26;20013;-60
2024/04/22 05:15:51;;;;;;;15.48;3.47;;;3.60;99.90;;;;;;5340132;26;20019;-60
2024/04/22 05:18:18;;;;;;;15.27;3.05;;;3.70;99.90;;;;;;5340041;26;20001;-60
2024/04/22 05:20:45;;;;;;;7.90;2.70;;;3.70;99.90;;;;;;5340200;26;20033;-60
2024/04/22 05:23:12;;;;;;;13.98;2.83;;;3.90;99.90;;;;;;5339894;26;20001;-60
2024/04/22 05:25:39;;;;;;;11.63;3.38;;;3.90;99.90;;;;;;5339856;26;20011;-60
2024/04/22 05:28:07;;;;;;;10.68;2.83;;;4.00;99.90;;;;;;5338073;26;20009;-60
2024/04/22 05:30:34;;;;;;;13.98;3.20;;;4.10;99.90;;;;;;5339951;26;20460;-60
2024/04/22 05:36:09;;;;;;;12.90;3.30;;;4.20;99.90;;;;;;5339868;26;20001;-60
2024/04/22 05:38:35;;;;;;;16.95;3.63;;;4.30;99.90;;;;;;5339728;26;20458;-60
2024/04/22 05:41:02;;;;;;;16.45;3.13;;;4.30;99.90;;;;;;5339850;26;20013;-61
2024/04/22 05:43:29;;;;;;;13.68;2.88;;;4.40;99.90;;;;;;5339749;26;20005;-60
2024/04/22 05:45:56;;;;;;;13.70;2.90;;;4.40;99.90;;;;;;5339944;26;20049;-60
2024/04/22 05:48:23;;;;;;;13.23;3.30;;;4.40;99.90;;;;;;5339601;26;20029;-60
2024/04/22 05:50:50;;;;;;;10.80;2.80;;;4.40;99.90;;;;;;5339484;26;20449;-60
2024/04/22 05:53:16;;;;;;;19.85;3.38;;;4.30;99.90;;;;;;5366807;26;20009;-60
2024/04/22 05:55:43;;;;;;;12.98;2.92;;;4.40;99.90;;;;;;5338444;26;20012;-60
2024/04/22 05:58:10;;;;;;;10.85;2.67;;;4.40;99.90;;;;;;5338083;26;20073;-61
2024/04/22 06:00:37;;;;;;;19.08;3.28;;;4.40;99.90;;;;;;5339507;26;20005;-61
2024/04/22 06:03:04;;;;;;;12.45;3.20;;;4.40;99.90;;;;;;5339277;26;20009;-61
2024/04/22 06:05:31;;;;;;;10.90;2.58;;;4.50;99.90;;;;;;5339750;26;20395;-61
2024/04/22 06:07:58;;;;;;;13.82;3.13;;;4.50;99.90;;;;;;5339131;26;20013;-61
2024/04/22 06:10:25;;;;;;;13.50;2.85;;;4.60;99.90;;;;;;5339487;26;20438;-61
2024/04/22 06:12:52;;;;;;;11.77;3.22;;;4.70;99.90;;;;;;5339355;26;20017;-61
2024/04/22 06:15:18;;;;;;;10.55;2.97;;;4.70;99.90;;;;;;5339488;26;20454;-61
2024/04/22 06:17:45;;;;;;;13.90;3.47;;;4.80;99.90;;;;;;5339085;26;20074;-61
2024/04/22 06:20:13;;;;;;;11.43;2.97;;;4.80;99.90;;;;;;5339189;26;20016;-62
2024/04/22 06:22:40;;;;;;;12.43;3.38;;;4.80;99.90;;;;;;5339215;26;20005;-62
2024/04/22 06:25:07;;;;;;;8.50;2.78;;;4.80;99.90;;;;;;5339359;26;20005;-66
2024/04/22 06:27:34;;;;;;;13.25;3.25;;;4.90;99.90;;;;;;5339011;26;20005;-65
2024/04/22 06:30:01;;;;;;;13.82;3.55;;;4.90;99.90;;;;;;5339088;26;20005;-65
2024/04/22 06:32:27;;;;;;;17.95;3.60;;;5.00;99.90;;;;;;5339241;26;20065;-65
2024/04/22 06:34:55;;;;;;;13.85;3.38;;;5.00;99.90;;;;;;5338912;26;20005;-65
2024/04/22 06:37:21;;;;;;;12.35;3.20;;;5.10;99.90;;;;;;5338901;26;20371;-66
2024/04/22 06:39:48;;;;;;;14.88;3.47;;;5.10;99.90;;;;;;5338858;26;20518;-61
2024/04/22 06:42:15;;;;;;;17.58;4.00;;;5.10;99.90;;;;;;5337457;26;20037;-61
2024/04/22 06:44:42;;;;;;;15.27;3.50;;;5.20;99.90;;;;;;5338901;26;20013;-61
2024/04/22 06:47:09;;;;;;;14.27;3.22;;;5.30;99.90;;;;;;5339018;26;20457;-61
2024/04/22 06:49:38;;;;;;;14.05;3.50;;;5.30;99.90;;;;;;5366091;26;20005;-61
2024/04/22 06:52:05;;;;;;;10.98;3.10;;;5.40;99.90;;;;;;5338742;26;20001;-61
2024/04/22 06:54:32;;;;;;;15.80;3.35;;;5.50;99.90;;;;;;5338709;26;20005;-61
2024/04/22 06:56:58;;;;;;;12.13;3.13;;;5.60;99.90;;;;;;5366417;26;20001;-61
2024/04/22 06:59:25;;;;;;;15.38;3.30;;;5.70;99.90;;;;;;5338785;26;20473;-61
2024/04/22 07:01:52;;;;;;;19.42;3.70;;;5.80;99.90;;;;;;5338914;26;20005;-61
2024/04/22 07:04:19;;;;;;;10.27;2.80;;;5.90;99.90;;;;;;5366003;26;20049;-61
2024/04/22 07:06:46;;;;;;;16.17;3.33;;;6.00;99.90;;;;;;5338628;26;20462;-61
2024/04/22 07:09:16;;;;;;;15.25;3.20;;;6.10;99.90;;;;;;5338267;26;20013;-61
2024/04/22 07:11:43;;;;;;;10.98;2.90;;;6.20;99.90;;;;;;5338462;26;20032;-62
2024/04/22 07:14:11;;;;;;;13.80;2.88;;;6.20;99.90;;;;;;5338102;26;20043;-61
2024/04/22 07:16:38;;;;;;;15.68;2.95;;;6.20;99.90;;;;;;5338340;26;20012;-61
2024/04/22 07:19:05;;;;;;;10.65;2.85;;;6.40;99.90;;;;;;5335585;26;20013;-61
2024/04/22 07:21:32;;;;;;;12.48;2.97;;;6.40;99.90;;;;;;5335843;26;20001;-62
2024/04/22 07:23:59;;;;;;;13.45;3.22;;;6.50;99.90;;;;;;5336042;26;20461;-62
2024/04/22 07:26:25;;;;;;;17.88;2.92;;;6.60;99.90;;;;;;5338322;26;20001;-62
2024/04/22 07:28:52;;;;;;;10.23;2.65;;;6.70;99.90;;;;;;5336350;26;20089;-63
2024/04/22 07:31:19;;;;;;;13.73;2.63;;;6.80;99.90;;;;;;5338112;26;20050;-64
2024/04/22 07:33:46;;;;;;;14.85;3.13;;;6.90;99.90;;;;;;5338065;26;20063;-64
2024/04/22 07:36:13;;;;;;;14.20;3.50;;;7.00;99.90;;;;;;5338232;26;20350;-65
2024/04/22 07:38:40;;;;;;;13.43;2.90;;;7.10;99.90;;;;;;5338254;26;20041;-61
2024/04/22 07:41:07;;;;;;;14.07;2.67;;;7.20;99.90;;;;;;5336492;26;20013;-63
2024/04/22 07:43:34;;;;;;;15.10;3.13;;;7.40;99.90;;;;;;5338182;26;20012;-63
2024/04/22 07:46:01;;;;;;;12.85;2.30;;;7.50;99.90;;;;;;5338373;26;20278;-63
2024/04/22 07:48:28;;;;;;;11.30;2.80;;;7.40;99.90;;;;;;5338017;26;20055;-63
2024/04/22 07:50:55;;;;;;;16.30;2.97;;;7.50;99.90;;;;;;5337852;26;20012;-64
2024/04/22 07:53:22;;;;;;;12.65;2.95;;;7.60;99.90;;;;;;5338258;26;20077;-63
2024/04/22 07:55:49;;;;;;;15.77;3.05;;;7.60;99.90;;;;;;5338017;26;19997;-63
2024/04/22 07:58:16;;;;;;;13.77;2.58;;;7.70;99.90;;;;;;5337687;26;20342;-64
2024/04/22 08:00:43;;;;;;;15.07;3.20;;;7.70;99.90;;;;;;5337718;26;20005;-63
2024/04/22 08:03:10;;;;;;;13.43;2.30;;;7.80;99.90;;;;;;5337933;26;20016;-62
2024/04/22 08:05:37;;;;;;;15.13;3.40;;;7.80;99.90;;;;;;5338109;26;20453;-63
2024/04/22 08:08:04;;;;;;;8.27;2.65;;;7.90;99.90;;;;;;5337693;26;20018;-63
2024/04/22 08:10:30;;;;;;;11.27;2.15;;;8.10;99.90;;;;;;5337450;26;20008;-63
2024/04/22 08:12:57;;;;;;;11.45;2.97;;;8.20;99.90;;;;;;5337540;26;20059;-63
2024/04/22 08:15:25;;;;;;;13.13;2.60;;;8.20;99.90;;;;;;5337688;26;19997;-62
2024/04/22 08:17:52;;;;;;;11.95;2.10;;;8.10;99.90;;;;;;5337708;26;20008;-61
2024/04/22 08:20:19;;;;;;;13.65;2.67;;;8.10;99.90;;;;;;5336763;26;20025;-62
2024/04/22 08:22:46;;;;;;;11.32;2.03;;;8.10;99.90;;;;;;5337538;26;20514;-61
2024/04/22 08:25:13;;;;;;;9.10;1.83;;;8.20;99.90;;;;;;5337339;26;20011;-60
2024/04/22 08:27:40;;;;;;;10.07;2.10;;;8.30;99.90;;;;;;5376754;26;20003;-61
2024/04/22 08:30:09;;;;;;;9.30;2.15;;;8.30;99.90;;;;;;5361170;26;20008;-61
2024/04/22 08:32:36;;;;;;;11.25;2.15;;;8.30;99.90;;;;;;5400956;26;20039;-61
2024/04/22 08:35:03;;;;;;;7.95;2.10;;;8.40;99.90;;;;;;5370390;26;20076;-62
2024/04/22 08:37:30;;;;;;;8.82;2.05;;;8.40;99.90;;;;;;5369987;26;20453;-62
2024/04/22 08:39:57;;;;;;;7.28;1.88;;;8.30;99.90;;;;;;5371226;26;20001;-61
2024/04/22 08:42:24;;;;;;;7.20;1.85;;;8.40;99.90;;;;;;5371896;26;20081;-61
2024/04/22 08:44:52;;;;;;;9.05;2.15;;;8.40;99.90;;;;;;5371782;26;20041;-62
2024/04/22 08:47:19;;;;;;;8.73;1.98;;;8.50;99.90;;;;;;5372038;26;20016;-61
2024/04/22 08:49:46;;;;;;;7.55;1.70;;;8.70;99.90;;;;;;5371278;26;20325;-61
2024/04/22 08:52:13;;;;;;;12.02;2.17;;;8.90;99.90;;;;;;5370477;26;20029;-61
2024/04/22 08:54:40;;;;;;;11.20;2.30;;;9.00;99.90;;;;;;5369671;26;20000;-60
2024/04/22 08:57:07;;;;;;;7.80;2.03;;;9.10;99.90;;;;;;5371961;26;20349;-63
2024/04/22 08:59:34;;;;;;;9.73;2.00;;;9.20;99.90;;;;;;5370993;26;20005;-60
2024/04/22 09:02:07;;;;;;;16.58;2.47;;;9.20;99.90;;;;;;5371616;26;20005;-61
2024/04/22 09:04:34;;;;;;;8.32;2.28;;;9.20;99.90;;;;;;5365998;26;20027;-63
2024/04/22 09:07:01;;;;;;;13.40;2.22;;;9.10;99.90;;;;;;5399226;26;20021;-60
2024/04/22 09:09:28;;;;;;;9.57;2.53;;;9.00;99.90;;;;;;5370853;26;20069;-60
2024/04/22 09:12:16;;;;;;;7.88;2.42;;;9.10;99.90;;;;;;5371618;26;20073;-65
2024/04/22 09:14:43;;;;;;;12.30;2.08;;;9.10;99.90;;;;;;5370983;26;20029;-65
2024/04/22 09:17:10;;;;;;;11.77;2.33;;;9.20;99.90;;;;;;5371125;26;20011;-61
2024/04/22 09:19:37;;;;;;;15.00;2.13;;;9.30;99.90;;;;;;5371066;26;20004;-64
2024/04/22 09:22:05;;;;;;;10.60;2.92;;;9.40;99.90;;;;;;5369419;26;20010;-64
2024/04/22 09:24:32;;;;;;;15.73;2.88;;;9.40;99.90;;;;;;5370746;26;20004;-60
2024/04/22 09:26:59;;;;;;;11.40;2.00;;;9.40;99.90;;;;;;5371306;26;20016;-60
2024/04/22 09:29:26;;;;;;;7.30;1.85;;;9.50;99.90;;;;;;5368943;26;20317;-65
2024/04/22 09:31:53;;;;;;;4.43;1.40;;;9.50;99.90;;;;;;5372907;26;20080;-65
2024/04/22 09:34:20;;;;;;;7.22;1.50;;;9.60;99.90;;;;;;5361787;26;20398;-63
2024/04/22 09:36:47;;;;;;;7.00;1.65;;;9.60;99.90;;;;;;5374572;26;20016;-64
2024/04/22 09:39:14;;;;;;;7.05;1.70;;;9.60;99.90;;;;;;5374122;26;20072;-61
2024/04/22 09:41:41;;;;;;;9.98;1.85;;;9.60;99.90;;;;;;5374102;26;20314;-65
2024/04/22 09:44:08;;;;;;;7.82;2.20;;;9.50;99.90;;;;;;5374169;26;20001;-66
2024/04/22 09:46:40;;;;;;;8.25;1.63;;;9.40;99.50;;;;;;5374588;26;20013;-65
2024/04/22 09:49:07;;;;;;;11.45;2.10;;;9.40;99.90;;;;;;5374338;26;20001;-60
2024/04/22 09:51:34;;;;;;;6.63;1.88;;;9.60;99.70;;;;;;5374743;26;20008;-62
2024/04/22 09:54:01;;;;;;;11.43;1.70;;;9.70;98.50;;;;;;5374295;26;20054;-60
2024/04/22 09:56:29;;;;;;;8.10;1.63;;;9.70;99.40;;;;;;5374550;26;20019;-60
2024/04/22 09:58:56;;;;;;;5.80;1.60;;;9.70;98.60;;;;;;5374463;26;20364;-60
2024/04/22 10:01:23;;;;;;;8.23;1.58;;;9.90;99.00;;;;;;5374272;26;20001;-60
2024/04/22 10:03:51;;;;;;;6.47;1.45;;;10.00;97.80;;;;;;5374462;26;20337;-60
2024/04/22 10:06:20;;;;;;;7.20;1.65;;;10.00;97.20;;;;;;5372987;26;20076;-64
2024/04/22 10:08:47;;;;;;;9.98;1.73;;;10.10;97.70;;;;;;5373668;26;20017;-63
2024/04/22 10:11:14;;;;;;;7.50;1.83;;;9.90;98.20;;;;;;5373906;26;20008;-62
2024/04/22 10:13:41;;;;;;;7.57;1.50;;;10.00;99.30;;;;;;5372062;26;20333;-63
2024/04/22 10:16:08;;;;;;;8.40;2.42;;;10.10;99.30;;;;;;5374125;26;19997;-63
2024/04/22 10:18:36;;;;;;;8.63;2.17;;;10.10;99.20;;;;;;5373991;26;20012;-63
2024/04/22 10:21:03;;;;;;;5.78;1.73;;;10.10;99.70;;;;;;5373927;26;20396;-63
2024/04/22 10:23:30;;;;;;;8.05;1.90;;;10.10;99.90;;;;;;5373869;26;20016;-61
2024/04/22 10:25:57;;;;;;;9.05;2.13;;;10.20;99.20;;;;;;5373912;26;20011;-60
2024/04/22 10:28:24;;;;;;;9.85;2.22;;;10.30;99.20;;;;;;5373938;26;20081;-64
2024/04/22 10:30:51;;;;;;;8.77;1.75;;;10.30;98.90;;;;;;5373812;26;20004;-60
2024/04/22 10:33:18;;;;;;;7.65;1.70;;;10.20;98.60;;;;;;5373833;26;20009;-63
2024/04/22 10:35:45;;;;;;;10.48;1.80;;;10.20;98.50;;;;;;5372844;26;20428;-62
2024/04/22 10:38:12;;;;;;;7.13;1.83;;;10.30;98.40;;;;;;5373196;26;20012;-63
2024/04/22 10:40:39;;;;;;;7.63;1.60;;;10.20;97.20;;;;;;5373025;26;20053;-61
2024/04/22 10:43:06;;;;;;;5.55;1.50;;;10.30;97.70;;;;;;5372385;26;20016;-62
2024/04/22 10:45:33;;;;;;;9.05;1.90;;;10.30;96.80;;;;;;5372922;26;19996;-63
2024/04/22 10:48:00;;;;;;;8.23;1.50;;;10.40;97.40;;;;;;5373232;26;20004;-62
2024/04/22 10:50:43;;;;;;;10.25;1.98;;;10.40;96.50;;;;;;5345592;26;20000;-66
2024/04/22 10:53:10;;;;;;;8.48;1.70;;;10.50;97.00;;;;;;5373241;26;20008;-61
2024/04/22 10:55:37;;;;;;;9.82;2.50;;;10.50;96.70;;;;;;5373524;26;20001;-65
2024/04/22 10:58:04;;;;;;;10.77;2.22;;;10.50;98.30;;;;;;5371440;26;20013;-64
2024/04/22 11:00:31;;;;;;;5.93;1.75;;;10.40;98.20;;;;;;5373126;26;20008;-61
2024/04/22 11:02:58;;;;;;;9.45;2.03;;;10.40;98.20;;;;;;5372798;26;20020;-66
2024/04/22 11:05:25;;;;;;;8.30;1.75;;;10.30;97.80;;;;;;5373227;26;20349;-66
2024/04/22 11:07:53;;;;;;;9.98;2.40;;;10.10;97.50;;;;;;5372869;26;20402;-66
2024/04/22 11:10:20;;;;;;;11.90;2.05;;;10.10;97.70;;;;;;5373020;26;20329;-67
2024/04/22 11:13:00;;;;;;;5.28;1.98;;;10.10;97.80;;;;;;5371634;26;20378;-66
2024/04/22 11:15:27;;;;;;;8.05;2.20;;;10.10;97.60;;;;;;5373124;26;20008;-66
2024/04/22 11:17:54;;;;;;;8.45;1.80;;;10.20;98.00;;;;;;5372705;26;20020;-65
2024/04/22 11:20:21;;;;;;;11.60;2.30;;;10.30;97.90;;;;;;5371363;26;20024;-66
2024/04/22 11:22:48;;;;;;;13.88;2.20;;;10.30;98.40;;;;;;5372800;26;20077;-66
2024/04/22 11:25:15;;;;;;;9.52;2.10;;;10.40;98.30;;;;;;5373056;26;20015;-65
2024/04/22 11:27:42;;;;;;;7.78;2.17;;;10.40;97.80;;;;;;5371119;26;20015;-65
2024/04/22 11:30:09;;;;;;;4.90;1.80;;;10.30;97.60;;;;;;5372763;26;20008;-65
2024/04/22 11:32:36;;;;;;;8.25;1.77;;;10.20;97.90;;;;;;5372497;26;20008;-63
2024/04/22 11:35:05;;;;;;;10.38;2.17;;;10.20;97.90;;;;;;5372740;26;19996;-61
2024/04/22 11:37:32;;;;;;;9.65;2.10;;;10.20;97.90;;;;;;5372602;26;20009;-60
2024/04/22 11:39:59;;;;;;;8.45;2.05;;;10.20;98.10;;;;;;5372991;26;19996;-61
2024/04/22 11:42:25;;;;;;;9.93;2.30;;;10.30;98.20;;;;;;5372494;26;20004;-61
2024/04/22 11:44:52;;;;;;;9.48;2.30;;;10.40;98.20;;;;;;5372716;26;20402;-60
2024/04/22 11:47:19;;;;;;;10.18;2.50;;;10.40;98.20;;;;;;5372149;26;20008;-62
2024/04/22 11:49:47;;;;;;;9.00;2.17;;;10.50;97.70;;;;;;5370597;26;20191;-60
2024/04/22 11:52:14;;;;;;;10.05;2.80;;;10.60;98.30;;;;;;5372542;26;20008;-60
2024/04/22 11:54:44;;;;;;;11.13;2.40;;;10.80;97.60;;;;;;5369135;26;20000;-60
2024/04/22 11:57:11;;;;;;;9.18;2.50;;;10.90;97.40;;;;;;5370847;26;20008;-60
2024/04/22 11:59:37;;;;;;;10.18;2.58;;;10.90;97.20;;;;;;5370509;26;20445;-61
2024/04/22 12:02:04;;;;;;;12.57;2.55;;;10.80;97.40;;;;;;5370572;26;20015;-60
2024/04/22 12:04:31;;;;;;;7.15;2.13;;;10.70;97.10;;;;;;5371266;26;20387;-61
2024/04/22 12:06:58;;;;;;;8.32;2.58;;;10.70;97.10;;;;;;5372509;26;20020;-61
2024/04/22 12:09:25;;;;;;;10.20;2.20;;;10.80;97.20;;;;;;5379969;26;20014;-60
2024/04/22 12:11:52;;;;;;;9.48;2.10;;;10.50;96.90;;;;;;5392993;26;20004;-60
2024/04/22 12:14:19;;;;;;;9.55;2.22;;;10.50;97.00;;;;;;5408112;26;19996;-60
2024/04/22 12:16:48;;;;;;;8.38;2.40;;;10.40;97.00;;;;;;5388108;26;20083;-62
2024/04/22 12:19:16;;;;;;;11.20;2.40;;;10.60;97.50;;;;;;5372406;26;20000;-61
2024/04/22 12:21:43;;;;;;;8.82;2.30;;;10.70;97.60;;;;;;5370532;26;20457;-61
2024/04/22 12:24:09;;;;;;;8.30;1.92;;;10.80;97.60;;;;;;5372040;26;20077;-60
2024/04/22 12:26:36;;;;;;;10.82;2.28;;;10.90;97.80;;;;;;5372416;26;20004;-63
2024/04/22 12:29:03;;;;;;;8.13;2.28;;;10.70;97.50;;;;;;5372195;26;20008;-63
2024/04/22 12:31:30;;;;;;;6.10;2.20;;;10.50;97.80;;;;;;5372018;26;20080;-63
2024/04/22 12:33:57;;;;;;;6.90;2.30;;;10.50;98.20;;;;;;5372357;26;20004;-64
2024/04/22 12:36:38;;;;;;;9.45;2.33;;;10.60;98.10;;;;;;5372084;26;20081;-63
2024/04/22 12:39:04;;;;;;;8.10;2.55;;;10.70;98.30;;;;;;5371856;26;20069;-63
2024/04/22 12:41:31;;;;;;;10.77;2.67;;;10.70;97.90;;;;;;5399598;26;20615;-61
2024/04/22 12:43:58;;;;;;;7.20;2.17;;;10.60;98.10;;;;;;5371872;26;20008;-61
2024/04/22 12:46:30;;;;;;;8.45;2.53;;;10.80;98.20;;;;;;5371815;26;20037;-61
2024/04/22 12:51:42;;;;;;;7.18;2.42;;;10.80;98.00;;;;;;5371678;26;20045;-60
2024/04/22 12:54:09;;;;;;;11.55;2.15;;;11.00;97.90;;;;;;5371557;26;20016;-61
2024/04/22 12:56:37;;;;;;;6.05;2.15;;;10.90;97.60;;;;;;5371008;26;20022;-61